Vernon Hills, Illinois
Current Conditions -  °F | °C
As of 3:52 PM on Wednesday 17 Dec 2014 (Local Time) from KPWK Reporting Station
Overcast Overcast  
Wind Chill: 16°   Ceiling: 2400
Heat Index: 26°   Visibility: 10mi
Dew Point: 16°   Wind: 10mph
Humidity: 66%   Direction: 300°WNW
Pressure: 30.25"   Gusts: NA
Location:  42.22°N, 87.97°W
Report Text: KPWK 172152Z 30009KT 10SM OVC024 M03/M09 A3025 RMK AO2 SLP251 T10331089
Loading
Personal Weather Stations






























Interactive Weather Map New forecast layout! Learn more

10-Day Weather Forecast

Advertisements
Track Severe Weather on mobile